sensor_id;sensor_type;location;lat;lon;timestamp;temperature;humidity
23291;DHT22;11814;44.686;10.842;2022-07-19T00:01:29;26.50;62.50
23291;DHT22;11814;44.686;10.842;2022-07-19T00:03:56;26.50;62.60
23291;DHT22;11814;44.686;10.842;2022-07-19T00:06:22;26.50;62.80
23291;DHT22;11814;44.686;10.842;2022-07-19T00:08:48;26.50;62.90
23291;DHT22;11814;44.686;10.842;2022-07-19T00:11:14;26.40;62.90
23291;DHT22;11814;44.686;10.842;2022-07-19T00:13:39;26.40;62.90
23291;DHT22;11814;44.686;10.842;2022-07-19T00:16:05;26.40;63.10
23291;DHT22;11814;44.686;10.842;2022-07-19T00:18:31;26.40;63.30
23291;DHT22;11814;44.686;10.842;2022-07-19T00:20:56;26.40;63.40
23291;DHT22;11814;44.686;10.842;2022-07-19T00:23:22;26.40;63.40
23291;DHT22;11814;44.686;10.842;2022-07-19T00:25:48;26.40;63.50
23291;DHT22;11814;44.686;10.842;2022-07-19T00:28:13;26.40;63.50
23291;DHT22;11814;44.686;10.842;2022-07-19T00:30:39;26.40;63.60
23291;DHT22;11814;44.686;10.842;2022-07-19T00:33:05;26.30;63.80
23291;DHT22;11814;44.686;10.842;2022-07-19T00:35:35;26.30;63.90
23291;DHT22;11814;44.686;10.842;2022-07-19T00:38:09;26.30;64.00
23291;DHT22;11814;44.686;10.842;2022-07-19T00:40:35;26.20;64.00
23291;DHT22;11814;44.686;10.842;2022-07-19T00:43:01;26.20;64.00
23291;DHT22;11814;44.686;10.842;2022-07-19T00:45:27;26.20;64.00
23291;DHT22;11814;44.686;10.842;2022-07-19T00:47:53;26.20;64.20
23291;DHT22;11814;44.686;10.842;2022-07-19T00:50:20;26.20;64.20
23291;DHT22;11814;44.686;10.842;2022-07-19T00:52:49;26.20;64.40
23291;DHT22;11814;44.686;10.842;2022-07-19T00:55:17;26.20;64.50
23291;DHT22;11814;44.686;10.842;2022-07-19T00:57:45;26.20;64.60
23291;DHT22;11814;44.686;10.842;2022-07-19T01:00:11;26.20;64.60
23291;DHT22;11814;44.686;10.842;2022-07-19T01:02:37;26.30;64.60
23291;DHT22;11814;44.686;10.842;2022-07-19T01:05:05;26.30;64.60
23291;DHT22;11814;44.686;10.842;2022-07-19T01:07:31;26.20;64.60
23291;DHT22;11814;44.686;10.842;2022-07-19T01:09:57;26.10;65.00
23291;DHT22;11814;44.686;10.842;2022-07-19T01:12:23;26.00;65.60
23291;DHT22;11814;44.686;10.842;2022-07-19T01:14:50;25.90;65.90
23291;DHT22;11814;44.686;10.842;2022-07-19T01:17:20;25.80;66.00
23291;DHT22;11814;44.686;10.842;2022-07-19T01:19:46;25.80;66.20
23291;DHT22;11814;44.686;10.842;2022-07-19T01:22:11;25.80;66.40
23291;DHT22;11814;44.686;10.842;2022-07-19T01:24:37;25.80;66.80
23291;DHT22;11814;44.686;10.842;2022-07-19T01:27:02;25.70;66.80
23291;DHT22;11814;44.686;10.842;2022-07-19T01:29:28;25.80;67.00
23291;DHT22;11814;44.686;10.842;2022-07-19T01:31:54;25.80;67.00
23291;DHT22;11814;44.686;10.842;2022-07-19T01:34:19;25.80;66.90
23291;DHT22;11814;44.686;10.842;2022-07-19T01:36:45;25.70;67.30
23291;DHT22;11814;44.686;10.842;2022-07-19T01:39:11;25.50;67.90
23291;DHT22;11814;44.686;10.842;2022-07-19T01:41:36;25.50;68.10
23291;DHT22;11814;44.686;10.842;2022-07-19T01:44:02;25.50;68.30
23291;DHT22;11814;44.686;10.842;2022-07-19T01:46:28;25.30;68.60
23291;DHT22;11814;44.686;10.842;2022-07-19T01:48:53;25.20;69.00
23291;DHT22;11814;44.686;10.842;2022-07-19T01:51:19;25.20;69.40
23291;DHT22;11814;44.686;10.842;2022-07-19T01:53:44;25.10;69.50
23291;DHT22;11814;44.686;10.842;2022-07-19T01:56:10;25.00;69.70
23291;DHT22;11814;44.686;10.842;2022-07-19T01:58:36;25.00;70.10
23291;DHT22;11814;44.686;10.842;2022-07-19T02:01:01;25.10;70.40
23291;DHT22;11814;44.686;10.842;2022-07-19T02:03:27;25.00;70.40
23291;DHT22;11814;44.686;10.842;2022-07-19T02:05:53;25.00;70.60
23291;DHT22;11814;44.686;10.842;2022-07-19T02:08:18;25.00;70.70
23291;DHT22;11814;44.686;10.842;2022-07-19T02:10:44;24.90;70.70
23291;DHT22;11814;44.686;10.842;2022-07-19T02:13:10;24.90;70.80
23291;DHT22;11814;44.686;10.842;2022-07-19T02:15:35;24.90;70.80
23291;DHT22;11814;44.686;10.842;2022-07-19T02:18:01;24.90;71.00
23291;DHT22;11814;44.686;10.842;2022-07-19T02:20:27;24.80;71.10
23291;DHT22;11814;44.686;10.842;2022-07-19T02:22:53;24.80;71.30
23291;DHT22;11814;44.686;10.842;2022-07-19T02:25:18;24.70;71.50
23291;DHT22;11814;44.686;10.842;2022-07-19T02:27:44;24.70;71.70
23291;DHT22;11814;44.686;10.842;2022-07-19T02:30:11;24.70;71.70
23291;DHT22;11814;44.686;10.842;2022-07-19T02:32:37;24.60;71.70
23291;DHT22;11814;44.686;10.842;2022-07-19T02:35:04;24.60;71.70
23291;DHT22;11814;44.686;10.842;2022-07-19T02:37:30;24.50;71.90
23291;DHT22;11814;44.686;10.842;2022-07-19T02:39:56;24.40;72.00
23291;DHT22;11814;44.686;10.842;2022-07-19T02:42:22;24.40;72.10
23291;DHT22;11814;44.686;10.842;2022-07-19T02:44:47;24.50;72.10
23291;DHT22;11814;44.686;10.842;2022-07-19T02:47:13;24.40;72.10
23291;DHT22;11814;44.686;10.842;2022-07-19T02:49:39;24.40;72.20
23291;DHT22;11814;44.686;10.842;2022-07-19T02:52:04;24.40;72.20
23291;DHT22;11814;44.686;10.842;2022-07-19T02:54:30;24.40;72.10
23291;DHT22;11814;44.686;10.842;2022-07-19T02:56:55;24.40;72.20
23291;DHT22;11814;44.686;10.842;2022-07-19T02:59:21;24.40;72.50
23291;DHT22;11814;44.686;10.842;2022-07-19T03:01:47;24.40;72.70
23291;DHT22;11814;44.686;10.842;2022-07-19T03:04:12;24.30;73.00
23291;DHT22;11814;44.686;10.842;2022-07-19T03:06:38;24.30;73.30
23291;DHT22;11814;44.686;10.842;2022-07-19T03:09:03;24.30;73.40
23291;DHT22;11814;44.686;10.842;2022-07-19T03:11:29;24.30;73.50
23291;DHT22;11814;44.686;10.842;2022-07-19T03:13:55;24.10;73.90
23291;DHT22;11814;44.686;10.842;2022-07-19T03:16:20;24.10;74.20
23291;DHT22;11814;44.686;10.842;2022-07-19T03:18:46;24.00;74.50
23291;DHT22;11814;44.686;10.842;2022-07-19T03:21:12;24.00;74.80
23291;DHT22;11814;44.686;10.842;2022-07-19T03:23:38;24.00;75.00
23291;DHT22;11814;44.686;10.842;2022-07-19T03:26:04;24.00;75.10
23291;DHT22;11814;44.686;10.842;2022-07-19T03:28:30;24.10;75.00
23291;DHT22;11814;44.686;10.842;2022-07-19T03:30:56;24.00;75.00
23291;DHT22;11814;44.686;10.842;2022-07-19T03:33:21;24.00;75.00
23291;DHT22;11814;44.686;10.842;2022-07-19T03:35:47;24.00;75.20
23291;DHT22;11814;44.686;10.842;2022-07-19T03:38:14;23.90;75.50
23291;DHT22;11814;44.686;10.842;2022-07-19T03:40:41;23.90;75.70
23291;DHT22;11814;44.686;10.842;2022-07-19T03:43:06;23.80;76.00
23291;DHT22;11814;44.686;10.842;2022-07-19T03:45:33;23.70;76.40
23291;DHT22;11814;44.686;10.842;2022-07-19T03:47:59;23.60;76.60
23291;DHT22;11814;44.686;10.842;2022-07-19T03:50:26;23.60;76.90
23291;DHT22;11814;44.686;10.842;2022-07-19T03:52:51;23.60;77.00
23291;DHT22;11814;44.686;10.842;2022-07-19T03:55:17;23.60;77.00
23291;DHT22;11814;44.686;10.842;2022-07-19T03:57:43;23.70;77.10
23291;DHT22;11814;44.686;10.842;2022-07-19T04:00:09;23.70;77.00
23291;DHT22;11814;44.686;10.842;2022-07-19T04:02:34;23.70;76.90
23291;DHT22;11814;44.686;10.842;2022-07-19T04:05:00;23.80;76.80
23291;DHT22;11814;44.686;10.842;2022-07-19T04:07:26;23.80;77.00
23291;DHT22;11814;44.686;10.842;2022-07-19T04:09:51;23.80;77.10
23291;DHT22;11814;44.686;10.842;2022-07-19T04:12:17;23.70;77.00
23291;DHT22;11814;44.686;10.842;2022-07-19T04:14:43;23.80;76.90
23291;DHT22;11814;44.686;10.842;2022-07-19T04:17:08;23.80;76.50
23291;DHT22;11814;44.686;10.842;2022-07-19T04:19:34;23.80;76.30
23291;DHT22;11814;44.686;10.842;2022-07-19T04:22:00;23.80;76.10
23291;DHT22;11814;44.686;10.842;2022-07-19T04:24:26;23.80;76.00
23291;DHT22;11814;44.686;10.842;2022-07-19T04:26:52;23.90;76.00
23291;DHT22;11814;44.686;10.842;2022-07-19T04:29:17;24.00;75.90
23291;DHT22;11814;44.686;10.842;2022-07-19T04:31:43;24.00;75.70
23291;DHT22;11814;44.686;10.842;2022-07-19T04:34:08;24.00;75.60
23291;DHT22;11814;44.686;10.842;2022-07-19T04:36:34;24.10;75.60
23291;DHT22;11814;44.686;10.842;2022-07-19T04:39:00;24.10;75.70
23291;DHT22;11814;44.686;10.842;2022-07-19T04:41:26;24.20;76.00
23291;DHT22;11814;44.686;10.842;2022-07-19T04:43:51;24.20;76.10
23291;DHT22;11814;44.686;10.842;2022-07-19T04:46:17;24.30;76.20
23291;DHT22;11814;44.686;10.842;2022-07-19T04:48:42;24.30;76.20
23291;DHT22;11814;44.686;10.842;2022-07-19T04:51:08;24.40;76.30
23291;DHT22;11814;44.686;10.842;2022-07-19T04:53:34;24.40;76.60
23291;DHT22;11814;44.686;10.842;2022-07-19T04:55:59;24.40;76.80
23291;DHT22;11814;44.686;10.842;2022-07-19T04:58:25;24.50;77.10
23291;DHT22;11814;44.686;10.842;2022-07-19T05:00:51;24.50;77.10
23291;DHT22;11814;44.686;10.842;2022-07-19T05:03:16;24.60;77.00
23291;DHT22;11814;44.686;10.842;2022-07-19T05:05:42;24.60;76.90
23291;DHT22;11814;44.686;10.842;2022-07-19T05:08:07;24.70;76.80
23291;DHT22;11814;44.686;10.842;2022-07-19T05:10:33;24.70;76.50
23291;DHT22;11814;44.686;10.842;2022-07-19T05:12:59;24.80;76.50
23291;DHT22;11814;44.686;10.842;2022-07-19T05:15:25;24.90;76.00
23291;DHT22;11814;44.686;10.842;2022-07-19T05:17:50;25.00;75.50
23291;DHT22;11814;44.686;10.842;2022-07-19T05:20:16;25.10;75.20
23291;DHT22;11814;44.686;10.842;2022-07-19T05:22:43;25.20;74.80
23291;DHT22;11814;44.686;10.842;2022-07-19T05:25:10;25.50;74.30
23291;DHT22;11814;44.686;10.842;2022-07-19T05:27:36;25.60;73.60
23291;DHT22;11814;44.686;10.842;2022-07-19T05:30:04;25.90;73.00
23291;DHT22;11814;44.686;10.842;2022-07-19T05:32:30;26.00;72.40
23291;DHT22;11814;44.686;10.842;2022-07-19T05:34:55;26.10;71.90
23291;DHT22;11814;44.686;10.842;2022-07-19T05:37:21;26.40;71.60
23291;DHT22;11814;44.686;10.842;2022-07-19T05:39:47;26.60;70.90
23291;DHT22;11814;44.686;10.842;2022-07-19T05:42:12;26.80;70.10
23291;DHT22;11814;44.686;10.842;2022-07-19T05:44:38;27.00;69.70
23291;DHT22;11814;44.686;10.842;2022-07-19T05:47:04;27.30;69.00
23291;DHT22;11814;44.686;10.842;2022-07-19T05:49:29;27.60;67.70
23291;DHT22;11814;44.686;10.842;2022-07-19T05:51:55;27.80;66.80
23291;DHT22;11814;44.686;10.842;2022-07-19T05:54:21;27.90;66.10
23291;DHT22;11814;44.686;10.842;2022-07-19T05:56:46;28.00;65.80
23291;DHT22;11814;44.686;10.842;2022-07-19T05:59:12;28.10;65.60
23291;DHT22;11814;44.686;10.842;2022-07-19T06:01:38;28.40;65.00
23291;DHT22;11814;44.686;10.842;2022-07-19T06:04:04;28.40;64.90
23291;DHT22;11814;44.686;10.842;2022-07-19T06:06:32;28.60;64.40
23291;DHT22;11814;44.686;10.842;2022-07-19T06:08:59;29.00;64.00
23291;DHT22;11814;44.686;10.842;2022-07-19T06:11:25;29.70;62.60
23291;DHT22;11814;44.686;10.842;2022-07-19T06:13:51;30.30;60.70
23291;DHT22;11814;44.686;10.842;2022-07-19T06:16:17;30.80;59.50
23291;DHT22;11814;44.686;10.842;2022-07-19T06:18:43;31.00;58.50
23291;DHT22;11814;44.686;10.842;2022-07-19T06:21:14;30.90;58.00
23291;DHT22;11814;44.686;10.842;2022-07-19T06:23:40;31.10;57.90
23291;DHT22;11814;44.686;10.842;2022-07-19T06:26:07;31.10;57.90
23291;DHT22;11814;44.686;10.842;2022-07-19T06:28:33;31.40;57.50
23291;DHT22;11814;44.686;10.842;2022-07-19T06:30:59;31.70;56.70
23291;DHT22;11814;44.686;10.842;2022-07-19T06:33:25;31.80;56.30
23291;DHT22;11814;44.686;10.842;2022-07-19T06:35:51;31.80;56.30
23291;DHT22;11814;44.686;10.842;2022-07-19T06:38:16;32.10;56.40
23291;DHT22;11814;44.686;10.842;2022-07-19T06:40:43;32.80;55.80
23291;DHT22;11814;44.686;10.842;2022-07-19T06:43:09;33.50;54.10
23291;DHT22;11814;44.686;10.842;2022-07-19T06:45:35;34.00;52.80
23291;DHT22;11814;44.686;10.842;2022-07-19T06:48:01;34.10;52.10
23291;DHT22;11814;44.686;10.842;2022-07-19T06:50:26;34.30;51.70
23291;DHT22;11814;44.686;10.842;2022-07-19T06:52:52;34.40;51.20
23291;DHT22;11814;44.686;10.842;2022-07-19T06:55:18;34.80;50.30
23291;DHT22;11814;44.686;10.842;2022-07-19T06:57:44;34.90;49.60
23291;DHT22;11814;44.686;10.842;2022-07-19T07:00:10;34.70;49.50
23291;DHT22;11814;44.686;10.842;2022-07-19T07:02:37;34.40;49.80
23291;DHT22;11814;44.686;10.842;2022-07-19T07:05:04;34.20;50.00
23291;DHT22;11814;44.686;10.842;2022-07-19T07:07:30;33.90;50.40
23291;DHT22;11814;44.686;10.842;2022-07-19T07:09:55;33.60;50.90
23291;DHT22;11814;44.686;10.842;2022-07-19T07:12:21;33.50;51.20
23291;DHT22;11814;44.686;10.842;2022-07-19T07:14:46;33.50;51.10
23291;DHT22;11814;44.686;10.842;2022-07-19T07:17:12;33.50;51.20
23291;DHT22;11814;44.686;10.842;2022-07-19T07:19:38;33.60;51.20
23291;DHT22;11814;44.686;10.842;2022-07-19T07:22:03;33.30;50.90
23291;DHT22;11814;44.686;10.842;2022-07-19T07:24:29;32.90;51.20
23291;DHT22;11814;44.686;10.842;2022-07-19T07:26:55;32.50;51.90
23291;DHT22;11814;44.686;10.842;2022-07-19T07:29:20;32.20;53.00
23291;DHT22;11814;44.686;10.842;2022-07-19T07:31:46;32.10;53.60
23291;DHT22;11814;44.686;10.842;2022-07-19T07:34:12;32.00;53.70
23291;DHT22;11814;44.686;10.842;2022-07-19T07:36:37;31.90;53.50
23291;DHT22;11814;44.686;10.842;2022-07-19T07:39:03;31.80;53.80
23291;DHT22;11814;44.686;10.842;2022-07-19T07:41:29;31.90;53.70
23291;DHT22;11814;44.686;10.842;2022-07-19T07:43:55;31.90;53.30
23291;DHT22;11814;44.686;10.842;2022-07-19T07:46:20;31.80;52.70
23291;DHT22;11814;44.686;10.842;2022-07-19T07:48:46;31.70;52.60
23291;DHT22;11814;44.686;10.842;2022-07-19T07:51:11;31.60;52.80
23291;DHT22;11814;44.686;10.842;2022-07-19T07:53:37;31.50;52.50
23291;DHT22;11814;44.686;10.842;2022-07-19T07:56:03;31.50;52.60
23291;DHT22;11814;44.686;10.842;2022-07-19T07:58:29;31.50;52.80
23291;DHT22;11814;44.686;10.842;2022-07-19T08:00:54;31.50;52.90
23291;DHT22;11814;44.686;10.842;2022-07-19T08:03:20;31.40;52.50
23291;DHT22;11814;44.686;10.842;2022-07-19T08:05:46;31.40;52.50
23291;DHT22;11814;44.686;10.842;2022-07-19T08:08:16;31.40;52.40
23291;DHT22;11814;44.686;10.842;2022-07-19T08:10:42;31.40;51.90
23291;DHT22;11814;44.686;10.842;2022-07-19T08:13:08;31.50;52.00
23291;DHT22;11814;44.686;10.842;2022-07-19T08:15:36;31.60;52.00
23291;DHT22;11814;44.686;10.842;2022-07-19T08:18:02;31.60;51.10
23291;DHT22;11814;44.686;10.842;2022-07-19T08:20:27;31.50;50.60
23291;DHT22;11814;44.686;10.842;2022-07-19T08:22:53;31.50;50.30
23291;DHT22;11814;44.686;10.842;2022-07-19T08:25:18;31.50;50.30
23291;DHT22;11814;44.686;10.842;2022-07-19T08:27:44;31.60;50.40
23291;DHT22;11814;44.686;10.842;2022-07-19T08:30:11;31.60;50.30
23291;DHT22;11814;44.686;10.842;2022-07-19T08:32:38;31.60;50.20
23291;DHT22;11814;44.686;10.842;2022-07-19T08:35:05;31.70;50.20
23291;DHT22;11814;44.686;10.842;2022-07-19T08:37:31;31.70;50.10
23291;DHT22;11814;44.686;10.842;2022-07-19T08:39:56;31.60;50.00
23291;DHT22;11814;44.686;10.842;2022-07-19T08:42:22;31.70;50.30
23291;DHT22;11814;44.686;10.842;2022-07-19T08:44:51;31.70;50.00
23291;DHT22;11814;44.686;10.842;2022-07-19T08:47:21;31.80;49.70
23291;DHT22;11814;44.686;10.842;2022-07-19T08:49:48;31.90;49.60
23291;DHT22;11814;44.686;10.842;2022-07-19T08:52:14;31.90;49.10
23291;DHT22;11814;44.686;10.842;2022-07-19T08:54:40;31.90;48.60
23291;DHT22;11814;44.686;10.842;2022-07-19T08:57:06;32.00;48.70
23291;DHT22;11814;44.686;10.842;2022-07-19T08:59:50;32.10;48.40
23291;DHT22;11814;44.686;10.842;2022-07-19T09:02:16;32.20;48.00
23291;DHT22;11814;44.686;10.842;2022-07-19T09:04:42;32.20;47.50
23291;DHT22;11814;44.686;10.842;2022-07-19T09:07:08;32.20;47.20
23291;DHT22;11814;44.686;10.842;2022-07-19T09:09:34;32.30;47.30
23291;DHT22;11814;44.686;10.842;2022-07-19T09:12:03;32.30;47.00
23291;DHT22;11814;44.686;10.842;2022-07-19T09:14:34;32.30;46.60
23291;DHT22;11814;44.686;10.842;2022-07-19T09:17:10;32.40;46.40
23291;DHT22;11814;44.686;10.842;2022-07-19T09:19:40;32.50;46.40
23291;DHT22;11814;44.686;10.842;2022-07-19T09:22:17;32.60;46.00
23291;DHT22;11814;44.686;10.842;2022-07-19T09:24:47;32.70;45.90
23291;DHT22;11814;44.686;10.842;2022-07-19T09:27:16;32.70;45.90
23291;DHT22;11814;44.686;10.842;2022-07-19T09:29:44;32.80;45.50
23291;DHT22;11814;44.686;10.842;2022-07-19T09:32:18;32.70;45.40
23291;DHT22;11814;44.686;10.842;2022-07-19T09:34:52;32.80;45.50
23291;DHT22;11814;44.686;10.842;2022-07-19T09:37:23;32.90;45.20
23291;DHT22;11814;44.686;10.842;2022-07-19T09:39:55;32.90;44.80
23291;DHT22;11814;44.686;10.842;2022-07-19T09:42:23;33.00;44.80
23291;DHT22;11814;44.686;10.842;2022-07-19T09:44:59;33.10;44.80
23291;DHT22;11814;44.686;10.842;2022-07-19T09:47:40;33.10;44.80
23291;DHT22;11814;44.686;10.842;2022-07-19T09:50:09;33.20;44.80
23291;DHT22;11814;44.686;10.842;2022-07-19T09:52:36;33.30;44.70
23291;DHT22;11814;44.686;10.842;2022-07-19T09:55:03;33.30;44.70
23291;DHT22;11814;44.686;10.842;2022-07-19T09:57:34;33.30;44.50
23291;DHT22;11814;44.686;10.842;2022-07-19T10:00:01;33.30;44.50
23291;DHT22;11814;44.686;10.842;2022-07-19T10:02:29;33.40;44.50
23291;DHT22;11814;44.686;10.842;2022-07-19T10:04:56;33.50;44.40
23291;DHT22;11814;44.686;10.842;2022-07-19T10:07:23;33.60;44.50
23291;DHT22;11814;44.686;10.842;2022-07-19T10:09:50;33.60;44.50
23291;DHT22;11814;44.686;10.842;2022-07-19T10:12:16;33.70;44.40
23291;DHT22;11814;44.686;10.842;2022-07-19T10:14:42;33.70;44.10
23291;DHT22;11814;44.686;10.842;2022-07-19T10:17:17;33.80;43.90
23291;DHT22;11814;44.686;10.842;2022-07-19T10:19:48;33.80;44.10
23291;DHT22;11814;44.686;10.842;2022-07-19T10:22:16;33.90;43.50
23291;DHT22;11814;44.686;10.842;2022-07-19T10:24:55;33.80;43.30
23291;DHT22;11814;44.686;10.842;2022-07-19T10:32:37;33.90;42.80
23291;DHT22;11814;44.686;10.842;2022-07-19T10:37:49;33.90;42.60
23291;DHT22;11814;44.686;10.842;2022-07-19T10:40:34;33.90;42.60
23291;DHT22;11814;44.686;10.842;2022-07-19T10:45:30;34.10;42.50
23291;DHT22;11814;44.686;10.842;2022-07-19T10:48:01;34.10;43.00
23291;DHT22;11814;44.686;10.842;2022-07-19T10:50:51;34.10;42.20
23291;DHT22;11814;44.686;10.842;2022-07-19T10:56:28;34.30;42.60
23291;DHT22;11814;44.686;10.842;2022-07-19T11:01:21;34.40;42.30
23291;DHT22;11814;44.686;10.842;2022-07-19T11:03:48;34.40;42.40
23291;DHT22;11814;44.686;10.842;2022-07-19T11:06:25;34.40;42.30
23291;DHT22;11814;44.686;10.842;2022-07-19T11:08:58;34.30;42.50
23291;DHT22;11814;44.686;10.842;2022-07-19T11:11:25;34.30;42.20
23291;DHT22;11814;44.686;10.842;2022-07-19T11:13:56;34.30;42.40
23291;DHT22;11814;44.686;10.842;2022-07-19T11:16:27;34.30;42.40
23291;DHT22;11814;44.686;10.842;2022-07-19T11:19:04;34.30;42.40
23291;DHT22;11814;44.686;10.842;2022-07-19T11:21:32;34.20;42.50
23291;DHT22;11814;44.686;10.842;2022-07-19T11:23:58;34.20;42.80
23291;DHT22;11814;44.686;10.842;2022-07-19T11:26:25;34.30;43.60
23291;DHT22;11814;44.686;10.842;2022-07-19T11:28:51;34.40;42.90
23291;DHT22;11814;44.686;10.842;2022-07-19T11:31:23;34.50;42.90
23291;DHT22;11814;44.686;10.842;2022-07-19T11:33:51;34.60;43.00
23291;DHT22;11814;44.686;10.842;2022-07-19T11:36:18;34.60;42.70
23291;DHT22;11814;44.686;10.842;2022-07-19T11:38:45;34.60;42.50
23291;DHT22;11814;44.686;10.842;2022-07-19T11:43:43;34.60;42.40
23291;DHT22;11814;44.686;10.842;2022-07-19T11:46:09;34.60;42.50
23291;DHT22;11814;44.686;10.842;2022-07-19T11:48:34;34.60;42.60
23291;DHT22;11814;44.686;10.842;2022-07-19T11:51:05;34.70;42.60
23291;DHT22;11814;44.686;10.842;2022-07-19T11:53:32;34.70;42.30
23291;DHT22;11814;44.686;10.842;2022-07-19T11:55:58;34.80;42.30
23291;DHT22;11814;44.686;10.842;2022-07-19T11:58:24;34.80;42.20
23291;DHT22;11814;44.686;10.842;2022-07-19T12:00:50;34.80;42.50
23291;DHT22;11814;44.686;10.842;2022-07-19T12:03:18;34.90;42.40
23291;DHT22;11814;44.686;10.842;2022-07-19T12:05:58;34.90;42.20
23291;DHT22;11814;44.686;10.842;2022-07-19T12:08:38;35.00;42.30
23291;DHT22;11814;44.686;10.842;2022-07-19T12:11:23;35.00;42.60
23291;DHT22;11814;44.686;10.842;2022-07-19T12:13:52;35.00;42.60
23291;DHT22;11814;44.686;10.842;2022-07-19T12:16:19;35.10;42.60
23291;DHT22;11814;44.686;10.842;2022-07-19T12:18:53;35.00;42.40
23291;DHT22;11814;44.686;10.842;2022-07-19T12:24:14;35.00;42.30
23291;DHT22;11814;44.686;10.842;2022-07-19T12:31:48;35.20;42.40
23291;DHT22;11814;44.686;10.842;2022-07-19T12:34:14;35.30;42.30
23291;DHT22;11814;44.686;10.842;2022-07-19T12:36:40;35.30;42.00
23291;DHT22;11814;44.686;10.842;2022-07-19T12:39:16;35.30;42.00
23291;DHT22;11814;44.686;10.842;2022-07-19T12:41:59;35.30;42.10
23291;DHT22;11814;44.686;10.842;2022-07-19T12:44:25;35.30;42.60
23291;DHT22;11814;44.686;10.842;2022-07-19T12:46:52;35.40;42.70
23291;DHT22;11814;44.686;10.842;2022-07-19T12:49:18;35.50;42.70
23291;DHT22;11814;44.686;10.842;2022-07-19T12:51:44;35.40;42.40
23291;DHT22;11814;44.686;10.842;2022-07-19T12:54:10;35.40;42.30
23291;DHT22;11814;44.686;10.842;2022-07-19T12:56:37;35.40;42.30
23291;DHT22;11814;44.686;10.842;2022-07-19T12:59:02;35.40;42.20
23291;DHT22;11814;44.686;10.842;2022-07-19T13:01:47;35.40;42.10
23291;DHT22;11814;44.686;10.842;2022-07-19T13:04:13;35.50;42.20
23291;DHT22;11814;44.686;10.842;2022-07-19T13:06:38;35.50;42.20
23291;DHT22;11814;44.686;10.842;2022-07-19T13:09:04;35.60;42.20
23291;DHT22;11814;44.686;10.842;2022-07-19T13:11:30;35.50;42.20
23291;DHT22;11814;44.686;10.842;2022-07-19T13:13:55;35.60;43.20
23291;DHT22;11814;44.686;10.842;2022-07-19T13:16:21;35.60;42.50
23291;DHT22;11814;44.686;10.842;2022-07-19T13:18:48;35.70;42.00
23291;DHT22;11814;44.686;10.842;2022-07-19T13:21:16;35.60;41.80
23291;DHT22;11814;44.686;10.842;2022-07-19T13:23:42;35.60;41.90
23291;DHT22;11814;44.686;10.842;2022-07-19T13:26:08;35.70;42.00
23291;DHT22;11814;44.686;10.842;2022-07-19T13:28:34;35.70;41.60
23291;DHT22;11814;44.686;10.842;2022-07-19T13:31:01;35.70;41.70
23291;DHT22;11814;44.686;10.842;2022-07-19T13:33:26;35.70;41.90
23291;DHT22;11814;44.686;10.842;2022-07-19T13:35:52;35.70;42.20
23291;DHT22;11814;44.686;10.842;2022-07-19T13:38:18;35.70;42.20
23291;DHT22;11814;44.686;10.842;2022-07-19T13:40:43;35.80;42.20
23291;DHT22;11814;44.686;10.842;2022-07-19T13:43:09;35.90;42.10
23291;DHT22;11814;44.686;10.842;2022-07-19T13:45:35;36.00;41.80
23291;DHT22;11814;44.686;10.842;2022-07-19T13:48:00;35.90;41.60
23291;DHT22;11814;44.686;10.842;2022-07-19T13:50:27;36.00;41.50
23291;DHT22;11814;44.686;10.842;2022-07-19T13:52:53;36.00;41.30
23291;DHT22;11814;44.686;10.842;2022-07-19T13:55:19;36.10;41.40
23291;DHT22;11814;44.686;10.842;2022-07-19T13:57:44;36.20;41.50
23291;DHT22;11814;44.686;10.842;2022-07-19T14:00:11;36.10;41.40
23291;DHT22;11814;44.686;10.842;2022-07-19T14:02:40;36.10;41.40
23291;DHT22;11814;44.686;10.842;2022-07-19T14:05:05;36.20;41.40
23291;DHT22;11814;44.686;10.842;2022-07-19T14:07:31;36.20;41.20
23291;DHT22;11814;44.686;10.842;2022-07-19T14:09:57;36.20;41.30
23291;DHT22;11814;44.686;10.842;2022-07-19T14:12:22;36.20;41.40
23291;DHT22;11814;44.686;10.842;2022-07-19T14:14:48;36.20;41.60
23291;DHT22;11814;44.686;10.842;2022-07-19T14:17:14;36.20;41.40
23291;DHT22;11814;44.686;10.842;2022-07-19T14:19:42;36.20;41.20
23291;DHT22;11814;44.686;10.842;2022-07-19T14:22:08;36.20;41.60
23291;DHT22;11814;44.686;10.842;2022-07-19T14:24:34;36.30;41.50
23291;DHT22;11814;44.686;10.842;2022-07-19T14:26:59;36.40;41.20
23291;DHT22;11814;44.686;10.842;2022-07-19T14:29:25;36.40;41.30
23291;DHT22;11814;44.686;10.842;2022-07-19T14:31:51;36.30;41.30
23291;DHT22;11814;44.686;10.842;2022-07-19T14:34:16;36.30;41.60
23291;DHT22;11814;44.686;10.842;2022-07-19T14:36:42;36.30;41.70
23291;DHT22;11814;44.686;10.842;2022-07-19T14:39:08;36.40;41.60
23291;DHT22;11814;44.686;10.842;2022-07-19T14:41:35;36.40;41.70
23291;DHT22;11814;44.686;10.842;2022-07-19T14:44:00;36.50;41.60
23291;DHT22;11814;44.686;10.842;2022-07-19T14:46:26;36.40;41.30
23291;DHT22;11814;44.686;10.842;2022-07-19T14:48:52;36.50;41.30
23291;DHT22;11814;44.686;10.842;2022-07-19T14:51:17;36.30;41.20
23291;DHT22;11814;44.686;10.842;2022-07-19T14:53:43;36.40;41.20
23291;DHT22;11814;44.686;10.842;2022-07-19T14:56:08;36.30;41.20
23291;DHT22;11814;44.686;10.842;2022-07-19T14:58:34;36.40;41.50
23291;DHT22;11814;44.686;10.842;2022-07-19T15:01:01;36.40;41.40
23291;DHT22;11814;44.686;10.842;2022-07-19T15:03:27;36.50;41.40
23291;DHT22;11814;44.686;10.842;2022-07-19T15:05:52;36.50;41.20
23291;DHT22;11814;44.686;10.842;2022-07-19T15:08:18;36.50;41.20
23291;DHT22;11814;44.686;10.842;2022-07-19T15:10:44;36.40;41.60
23291;DHT22;11814;44.686;10.842;2022-07-19T15:13:09;36.50;41.00
23291;DHT22;11814;44.686;10.842;2022-07-19T15:15:35;36.40;40.90
23291;DHT22;11814;44.686;10.842;2022-07-19T15:18:01;36.50;41.00
23291;DHT22;11814;44.686;10.842;2022-07-19T15:20:26;36.50;40.90
23291;DHT22;11814;44.686;10.842;2022-07-19T15:22:52;36.40;40.90
23291;DHT22;11814;44.686;10.842;2022-07-19T15:25:18;36.40;41.10
23291;DHT22;11814;44.686;10.842;2022-07-19T15:27:48;36.50;41.10
23291;DHT22;11814;44.686;10.842;2022-07-19T15:30:16;36.50;41.10
23291;DHT22;11814;44.686;10.842;2022-07-19T15:32:42;36.50;41.10
23291;DHT22;11814;44.686;10.842;2022-07-19T15:35:08;36.40;40.80
23291;DHT22;11814;44.686;10.842;2022-07-19T15:37:33;36.30;40.80
23291;DHT22;11814;44.686;10.842;2022-07-19T15:39:59;36.30;41.10